McCook, NE

3:49 PM CDT on March 23, 2017 (GMT -0500)
KNEMCCOO2 | | Change Station

Elev 2609 ft 40.21 °N, 100.64 °W | Updated 9 minutes ago

Clear
Clear
81.7 °F
Feels Like 81 °F
N
9.6
Wind Variable Wind from South
Gusts 14.3 mph

Today
High -- | Low -- °F
--% Chance of Precip.
Yesterday
High -- | Low -- °F
Precip. -- in
Pressure 29.51 in
Visibility 10.0 miles
Clouds Clear
Heat Index 81 °F
Dew Point 50 °F
Humidity 34%
Rainfall 0.00 in
Snow Depth Not available.
7:40 AM 7:58 PM
Waning Crescent, 21% visible
METAR KMCK 231953Z AUTO 20012G20KT 10SM CLR 28/11 A2955 RMK AO2 SLP991 T02830106
Pressure 29.51 in
Visibility 10.0 miles
Clouds Clear
Heat Index 81 °F
Dew Point 50 °F
Humidity 34%
Rainfall 0.00 in
Snow Depth Not available.
7:40 AM 7:58 PM
Waning Crescent, 21% visible
METAR KMCK 231953Z AUTO 20012G20KT 10SM CLR 28/11 A2955 RMK AO2 SLP991 T02830106

Get Severe Weather Alerts

Thanks for signing up!

Be on the lookout for a verification email in your inbox.

You'll start receiving the daily forecast at 8 AM.

×

10-Day Weather Forecast

Almanac

Astronomy

Mar. 23, 2017 Rise Set
Actual Time
Civil Twilight
Nautical Twilight
Astronomical Twilight
Moon
Length of Visible Light
Length of Day
Tomorrow will be .
, % of the Moon is Illuminated

Today's Extremes

State Highs State Lows

Community

WunderPhotos

Upload Photos

1,962,540 photos uploaded!

WunderBlog® & News

Nearby

Air Quality

  Air Quality AQ Index Pollutant
Not available.

Snow Depth

Station Depth Elevation

Earthquake Activity

City Distance Mag. Time & Date
Minimum magnitude displayed is 2.5.

Earthquake Activity

City Distance Mag. Time & Date
Minimum magnitude displayed is 2.5.

Coastal Water Temperatures

Place Temperature

Stations

Nearby Weather Stations

Station Location Temp. Windchill Dew Point Humidity Wind Precip. Elev Updated Type
                   

Watches & Warnings

There are currently no watches in effect.